Time;durP1;ratioP1;P1;durP2;ratioP2;P2;SDS_P1;SDS_P2;PMS_P1;PMS_P2;Temp;Humidity;BMP_temperature;BMP_pressure;BME280_temperature;BME280_humidity;BME280_pressure;Samples;Min_cycle;Max_cycle;Signal;HPM_P1;HPM_P2
2024/04/25 00:01:20;;;;;;;3.97;3.00;;;;;;;11.52;86.39;99603.41;5346456;26;20021;-75
2024/04/25 00:04:27;;;;;;;4.40;3.70;;;;;;;11.55;86.95;99591.50;5325607;26;20456;-78
2024/04/25 00:07:32;;;;;;;5.65;3.70;;;;;;;11.55;87.15;99586.13;5345184;26;20029;-76
2024/04/25 00:10:38;;;;;;;6.35;3.35;;;;;;;11.16;89.43;99584.88;5325607;26;20360;-76
2024/04/25 00:13:43;;;;;;;5.40;4.18;;;;;;;11.33;88.78;99581.28;5346222;26;20024;-75
2024/04/25 00:16:48;;;;;;;6.53;4.22;;;;;;;11.24;89.32;99575.00;5346489;26;20025;-75
2024/04/25 00:19:53;;;;;;;6.32;4.22;;;;;;;11.31;88.93;99575.22;5344916;26;20029;-77
2024/04/25 00:22:57;;;;;;;5.45;4.32;;;;;;;11.55;87.85;99575.38;5344757;26;20021;-78
2024/04/25 00:26:02;;;;;;;5.15;4.00;;;;;;;11.50;88.23;99585.75;5344657;26;20020;-76
2024/04/25 00:29:07;;;;;;;5.85;4.45;;;;;;;11.84;87.13;99602.78;5345757;26;20447;-80
2024/04/25 00:32:11;;;;;;;6.90;4.75;;;;;;;11.69;87.57;99605.22;5345823;26;20429;-74
2024/04/25 00:35:16;;;;;;;6.30;4.10;;;;;;;11.62;87.33;99604.16;5345443;26;20025;-75
2024/04/25 00:38:21;;;;;;;4.55;3.90;;;;;;;11.55;88.19;99600.38;5345488;26;20029;-76
2024/04/25 00:41:26;;;;;;;5.55;4.47;;;;;;;11.64;88.03;99599.44;5345421;26;20021;-75
2024/04/25 00:44:30;;;;;;;5.20;4.32;;;;;;;11.64;87.99;99604.81;5345318;26;20359;-75
2024/04/25 00:47:36;;;;;;;5.53;4.68;;;;;;;11.84;86.43;99607.31;5344608;26;20359;-75
2024/04/25 00:50:41;;;;;;;5.10;3.90;;;;;;;11.85;86.12;99606.31;5344939;26;20024;-75
2024/04/25 00:53:49;;;;;;;6.15;3.70;;;;;;;11.63;86.73;99597.75;5345139;26;20020;-75
2024/04/25 00:56:55;;;;;;;5.05;4.20;;;;;;;11.68;86.56;99592.78;5347755;26;20331;-76
2024/04/25 01:00:01;;;;;;;5.85;4.63;;;;;;;11.65;86.72;99600.28;5348747;26;20029;-76
2024/04/25 01:03:07;;;;;;;5.65;4.43;;;;;;;11.54;87.61;99596.03;5349152;26;20021;-76
2024/04/25 01:06:15;;;;;;;5.22;4.20;;;;;;;11.61;86.86;99594.38;5348611;26;20029;-75
2024/04/25 01:09:20;;;;;;;5.25;4.32;;;;;;;11.74;85.95;99594.84;5348770;26;20369;-75
2024/04/25 01:12:27;;;;;;;5.00;4.18;;;;;;;11.71;86.13;99600.53;5348661;26;20021;-76
2024/04/25 01:15:32;;;;;;;5.20;4.13;;;;;;;11.72;86.23;99598.69;5348292;26;20025;-76
2024/04/25 01:18:37;;;;;;;6.20;4.45;;;;;;;11.66;86.40;99588.53;5347868;26;20025;-77
2024/04/25 01:21:42;;;;;;;5.53;4.10;;;;;;;11.62;85.96;99571.88;5348268;26;20021;-76
2024/04/25 01:24:48;;;;;;;5.63;4.45;;;;;;;11.09;87.45;99553.25;5348156;26;20364;-75
2024/04/25 01:27:53;;;;;;;4.93;4.13;;;;;;;10.75;87.83;99533.53;5348359;26;20025;-74
2024/04/25 01:30:59;;;;;;;5.78;4.00;;;;;;;11.27;85.37;99539.78;5348378;26;20360;-76
2024/04/25 01:34:04;;;;;;;5.20;4.07;;;;;;;11.27;85.30;99531.72;5347868;26;20032;-77
2024/04/25 01:37:08;;;;;;;5.60;4.60;;;;;;;10.80;87.38;99523.19;5347991;26;20025;-76
2024/04/25 01:40:13;;;;;;;5.63;3.95;;;;;;;10.57;89.46;99513.91;5347943;26;20025;-75
2024/04/25 01:43:18;;;;;;;5.28;4.18;;;;;;;10.67;88.07;99509.31;5347933;26;20024;-76
2024/04/25 01:46:22;;;;;;;8.05;4.60;;;;;;;10.79;86.82;99508.06;5347690;26;20441;-76
2024/04/25 01:49:27;;;;;;;4.68;4.07;;;;;;;10.83;88.02;99512.13;5347684;26;20017;-76
2024/04/25 01:52:32;;;;;;;5.10;4.20;;;;;;;10.77;87.57;99510.06;5348401;26;20033;-76
2024/04/25 01:55:37;;;;;;;4.93;4.07;;;;;;;10.61;89.03;99509.94;5346904;26;20025;-76
2024/04/25 01:58:41;;;;;;;12.48;6.43;;;;;;;10.31;90.05;99511.19;5347922;26;20029;-76
2024/04/25 02:01:45;;;;;;;7.78;5.55;;;;;;;10.13;91.02;99509.50;5346633;26;20048;-77
2024/04/25 02:04:50;;;;;;;6.93;5.57;;;;;;;10.53;89.98;99499.13;5347449;26;20025;-76
2024/04/25 02:07:54;;;;;;;6.40;5.78;;;;;;;10.41;90.08;99500.38;5347603;26;20464;-76
2024/04/25 02:11:00;;;;;;;7.10;5.90;;;;;;;10.19;90.82;99503.53;5347500;26;20021;-76
2024/04/25 02:14:05;;;;;;;7.70;6.03;;;;;;;10.27;90.02;99500.94;5347553;26;20398;-75
2024/04/25 02:17:10;;;;;;;6.60;5.78;;;;;;;10.10;90.59;99499.03;5347596;26;20367;-76
2024/04/25 02:27:01;;;;;;;8.30;6.72;;;;;;;9.78;92.39;99478.94;5347825;26;20029;-78
2024/04/25 02:30:06;;;;;;;7.30;6.45;;;;;;;10.16;90.40;99490.41;5347273;26;20469;-76
2024/04/25 02:33:11;;;;;;;8.40;7.13;;;;;;;10.04;90.46;99480.88;5347857;26;20024;-74
2024/04/25 02:36:16;;;;;;;8.02;6.63;;;;;;;10.08;89.90;99495.66;5341003;26;20403;-77
2024/04/25 02:39:22;;;;;;;8.05;7.00;;;;;;;10.26;89.65;99497.41;5347096;26;20028;-79
2024/04/25 02:42:26;;;;;;;10.50;7.10;;;;;;;10.15;89.60;99505.66;5347046;26;20025;-78
2024/04/25 02:45:31;;;;;;;8.95;7.82;;;;;;;10.08;89.89;99506.38;5347489;26;20029;-79
2024/04/25 02:48:36;;;;;;;7.78;6.55;;;;;;;10.16;88.43;99514.56;5346911;26;20352;-78
2024/04/25 02:51:41;;;;;;;9.32;6.82;;;;;;;10.00;89.52;99515.19;5346728;26;20025;-79
2024/04/25 02:54:47;;;;;;;9.52;7.70;;;;;;;10.27;88.58;99527.75;5346803;26;20028;-78
2024/04/25 02:57:52;;;;;;;7.65;5.97;;;;;;;10.22;87.68;99533.56;5347005;26;20017;-80
2024/04/25 03:01:01;;;;;;;6.03;5.40;;;;;;;10.04;87.53;99531.84;5346908;26;20021;-79
2024/04/25 03:04:06;;;;;;;7.90;4.95;;;;;;;10.17;87.81;99532.34;5346614;26;20025;-79
2024/04/25 03:07:10;;;;;;;8.88;5.40;;;;;;;10.04;88.15;99537.19;5345565;26;20025;-79
2024/04/25 03:10:15;;;;;;;6.35;5.47;;;;;;;9.77;90.11;99546.09;5346788;26;20367;-78
2024/04/25 03:13:20;;;;;;;6.75;5.82;;;;;;;9.85;89.72;99540.81;5346635;26;20029;-79
2024/04/25 03:16:25;;;;;;;5.95;5.32;;;;;;;9.89;90.20;99544.06;5346027;26;20025;-77
2024/04/25 03:19:29;;;;;;;6.93;5.82;;;;;;;9.86;90.49;99549.72;5346522;26;20472;-78
2024/04/25 03:22:34;;;;;;;8.15;6.75;;;;;;;9.69;91.09;99546.84;5346530;26;20079;-79
2024/04/25 03:25:38;;;;;;;7.25;6.15;;;;;;;9.71;91.25;99546.69;5346554;26;20440;-78
2024/04/25 03:28:43;;;;;;;8.02;6.97;;;;;;;9.83;90.18;99557.06;5346189;26;20030;-76
2024/04/25 03:31:48;;;;;;;10.38;7.00;;;;;;;9.84;89.48;99555.22;5346409;26;20021;-75
2024/04/25 03:34:53;;;;;;;8.52;6.97;;;;;;;9.80;89.86;99560.03;5346255;26;20024;-77
2024/04/25 03:37:58;;;;;;;9.00;7.38;;;;;;;9.75;89.75;99550.78;5346200;26;20025;-78
2024/04/25 03:41:02;;;;;;;10.68;7.85;;;;;;;9.79;90.02;99552.16;5346910;26;20025;-78
2024/04/25 03:44:07;;;;;;;10.65;8.38;;;;;;;9.75;90.48;99548.09;5311549;27;20022;-76
2024/04/25 03:47:11;;;;;;;10.57;8.40;;;;;;;9.73;91.17;99542.88;5310197;27;20025;-75
2024/04/25 03:50:20;;;;;;;10.77;9.18;;;;;;;9.67;91.07;99551.50;5311439;27;20025;-77
2024/04/25 03:53:25;;;;;;;11.43;9.40;;;;;;;9.46;91.46;99548.22;5311586;27;20029;-78
2024/04/25 03:56:30;;;;;;;12.25;10.55;;;;;;;9.61;91.81;99549.41;5311653;27;20453;-79
2024/04/25 03:59:34;;;;;;;11.00;9.88;;;;;;;9.47;92.15;99541.88;5311457;27;20025;-75
2024/04/25 04:02:39;;;;;;;11.52;10.32;;;;;;;9.56;91.60;99540.13;5311571;27;20029;-78
2024/04/25 04:05:43;;;;;;;11.15;9.95;;;;;;;9.52;91.47;99546.78;5326935;26;20032;-75
2024/04/25 04:08:48;;;;;;;11.73;10.15;;;;;;;9.55;91.54;99538.47;5345758;26;20468;-79
2024/04/25 04:11:53;;;;;;;12.73;10.40;;;;;;;9.49;91.70;99537.22;5345986;26;20029;-79
2024/04/25 04:14:58;;;;;;;12.18;9.70;;;;;;;9.66;90.67;99533.75;5345844;26;20021;-77
2024/04/25 04:18:03;;;;;;;12.75;10.38;;;;;;;9.65;90.42;99542.75;5345861;26;20017;-79
2024/04/25 04:21:08;;;;;;;13.18;10.40;;;;;;;9.71;90.17;99539.50;5345500;26;20367;-80
2024/04/25 04:24:14;;;;;;;12.93;10.95;;;;;;;9.63;90.67;99552.78;5345824;26;20021;-79
2024/04/25 04:27:19;;;;;;;11.98;10.65;;;;;;;9.72;90.36;99553.75;5345434;26;20460;-79
2024/04/25 04:30:24;;;;;;;18.00;11.93;;;;;;;9.65;90.15;99552.66;5348885;26;20477;-79
2024/04/25 04:33:29;;;;;;;14.77;12.60;;;;;;;9.70;90.53;99555.75;5348801;26;20368;-80
2024/04/25 04:36:36;;;;;;;15.68;12.38;;;;;;;9.81;90.97;99553.69;5348869;26;20021;-79
2024/04/25 04:39:41;;;;;;;15.85;12.88;;;;;;;9.92;90.24;99552.66;5348853;26;20021;-79
2024/04/25 04:42:46;;;;;;;16.55;13.25;;;;;;;10.18;89.78;99550.09;5346375;26;20033;-78
2024/04/25 04:45:55;;;;;;;15.25;13.35;;;;;;;10.48;88.94;99549.75;5348957;26;20386;-80
2024/04/25 04:49:00;;;;;;;14.75;12.32;;;;;;;10.95;87.33;99559.19;5348687;26;20469;-78
2024/04/25 04:52:05;;;;;;;15.75;13.07;;;;;;;11.50;85.67;99559.75;5348534;26;20365;-80
2024/04/25 04:55:10;;;;;;;14.25;12.50;;;;;;;12.19;82.45;99564.06;5348407;26;20021;-80
2024/04/25 04:58:14;;;;;;;14.63;11.98;;;;;;;12.91;79.58;99563.31;5348991;26;20021;-78
2024/04/25 05:01:19;;;;;;;13.75;10.68;;;;;;;13.46;75.63;99580.47;5337808;26;20029;-79
2024/04/25 05:04:24;;;;;;;11.65;10.10;;;;;;;13.89;72.14;99589.09;5346016;26;20401;-76
2024/04/25 05:07:29;;;;;;;10.07;8.55;;;;;;;14.17;71.44;99587.66;5348187;26;20044;-79
2024/04/25 05:10:33;;;;;;;8.80;7.90;;;;;;;14.91;68.42;99593.25;5348157;26;20025;-78
2024/04/25 05:13:39;;;;;;;9.23;7.80;;;;;;;15.52;66.64;99592.25;5348208;26;20025;-75
2024/04/25 05:16:44;;;;;;;8.50;7.60;;;;;;;15.69;63.75;99595.59;5348296;26;20021;-78
2024/04/25 05:19:48;;;;;;;8.57;7.65;;;;;;;16.19;62.51;99601.09;5348038;26;20020;-78
2024/04/25 05:22:53;;;;;;;8.02;6.85;;;;;;;16.68;61.38;99595.03;5347543;26;20515;-80
2024/04/25 05:25:58;;;;;;;9.60;7.65;;;;;;;17.33;58.42;99600.25;5348145;26;20025;-80
2024/04/25 05:29:04;;;;;;;7.95;7.00;;;;;;;17.47;57.48;99604.75;5348204;26;20359;-78
2024/04/25 05:32:09;;;;;;;9.27;6.90;;;;;;;15.03;63.25;99622.56;5347981;26;20021;-77
2024/04/25 05:35:13;;;;;;;8.15;7.28;;;;;;;13.77;70.04;99622.88;5348067;26;20024;-79
2024/04/25 05:38:18;;;;;;;9.88;7.88;;;;;;;13.03;73.36;99619.38;5346859;26;20025;-76
2024/04/25 05:41:23;;;;;;;9.18;8.20;;;;;;;12.93;74.32;99629.50;5345061;26;20469;-75
2024/04/25 05:44:27;;;;;;;8.13;7.32;;;;;;;12.47;76.89;99626.56;5347680;26;20371;-75
2024/04/25 05:47:32;;;;;;;8.02;7.00;;;;;;;12.23;77.90;99622.78;5347755;26;20452;-78
2024/04/25 05:50:37;;;;;;;9.68;7.47;;;;;;;11.95;79.34;99625.84;5347433;26;20020;-77
2024/04/25 05:53:41;;;;;;;8.55;7.65;;;;;;;12.06;80.54;99629.09;5347670;26;20020;-75
2024/04/25 05:56:48;;;;;;;9.70;8.20;;;;;;;12.08;80.80;99635.16;5347621;26;20024;-79
2024/04/25 05:59:55;;;;;;;9.98;7.05;;;;;;;11.92;82.56;99637.78;5347703;26;20457;-80
2024/04/25 06:03:01;;;;;;;8.70;7.03;;;;;;;12.67;79.70;99639.53;5344123;26;20347;-77
2024/04/25 06:06:06;;;;;;;10.15;6.63;;;;;;;12.56;79.32;99642.56;5342224;26;20022;-77
2024/04/25 06:09:10;;;;;;;8.85;6.50;;;;;;;12.71;79.53;99649.00;5346391;26;20021;-77
2024/04/25 06:12:15;;;;;;;8.10;5.45;;;;;;;13.25;76.69;99650.25;5320929;26;20021;-78
2024/04/25 06:15:20;;;;;;;7.05;5.32;;;;;;;13.19;76.54;99658.13;5313047;27;20025;-76
2024/04/25 06:18:25;;;;;;;5.95;4.90;;;;;;;14.30;73.64;99658.06;5312915;27;20324;-78
2024/04/25 06:21:29;;;;;;;7.43;5.38;;;;;;;13.72;74.32;99663.84;5312211;27;20025;-76
2024/04/25 06:24:34;;;;;;;6.38;5.10;;;;;;;13.67;75.92;99663.50;5313000;27;20025;-78
2024/04/25 06:27:39;;;;;;;5.47;4.65;;;;;;;14.08;74.73;99656.16;5336254;26;20026;-74
2024/04/25 06:30:43;;;;;;;6.57;4.18;;;;;;;14.38;72.69;99666.19;5340575;26;20021;-76
2024/04/25 06:33:49;;;;;;;4.68;3.22;;;;;;;14.43;70.28;99663.81;5336922;26;20399;-77
2024/04/25 06:36:53;;;;;;;3.80;2.65;;;;;;;14.61;69.90;99667.09;5347080;26;20021;-75
2024/04/25 06:39:58;;;;;;;4.22;2.63;;;;;;;14.90;68.77;99667.25;5347282;26;20029;-76
2024/04/25 06:43:03;;;;;;;2.97;2.05;;;;;;;15.50;66.89;99661.06;5347069;26;20045;-73
2024/04/25 06:46:08;;;;;;;2.28;1.45;;;;;;;15.62;64.53;99667.72;5345605;26;20362;-76
2024/04/25 06:49:14;;;;;;;2.42;1.40;;;;;;;15.28;63.65;99675.44;5318253;26;20030;-79
2024/04/25 06:52:20;;;;;;;2.00;1.00;;;;;;;15.38;64.69;99684.13;5278548;27;20027;-78
2024/04/25 06:55:25;;;;;;;7.72;1.52;;;;;;;15.10;63.08;99674.88;5239222;27;20030;-78
2024/04/25 06:58:30;;;;;;;3.55;1.00;;;;;;;15.70;61.87;99675.75;5278676;27;20026;-79
2024/04/25 07:01:35;;;;;;;4.22;0.98;;;;;;;16.10;60.03;99678.03;5279029;27;20458;-80
2024/04/25 07:04:40;;;;;;;1.75;0.82;;;;;;;15.79;60.71;99676.50;5278782;27;20018;-80
2024/04/25 07:07:44;;;;;;;3.67;0.85;;;;;;;16.20;56.53;99677.75;5258874;27;20458;-81
2024/04/25 07:10:49;;;;;;;1.48;0.70;;;;;;;17.97;51.22;99679.69;5277728;27;20023;-79
2024/04/25 07:13:54;;;;;;;2.10;0.98;;;;;;;18.84;50.70;99684.34;5298444;27;20033;-79
2024/04/25 07:16:58;;;;;;;1.83;0.80;;;;;;;19.74;45.56;99680.34;5312677;27;20025;-78
2024/04/25 07:20:04;;;;;;;1.70;0.70;;;;;;;17.14;51.00;99683.09;5312742;27;20026;-74
2024/04/25 07:23:09;;;;;;;1.27;0.52;;;;;;;19.87;44.86;99675.75;5297561;26;20029;-80
2024/04/25 07:26:14;;;;;;;1.77;0.52;;;;;;;20.23;45.00;99677.16;5278570;27;20454;-77
2024/04/25 07:29:18;;;;;;;1.65;0.80;;;;;;;18.72;48.77;99685.97;5278348;27;20034;-79
2024/04/25 07:32:23;;;;;;;2.78;0.88;;;;;;;17.13;51.70;99678.72;5278165;27;20023;-79
2024/04/25 07:35:28;;;;;;;3.13;0.73;;;;;;;17.22;52.35;99682.13;5278278;27;20030;-79
2024/04/25 07:38:32;;;;;;;2.90;1.10;;;;;;;16.96;53.45;99688.13;5257898;27;20030;-78
2024/04/25 07:41:37;;;;;;;1.50;0.70;;;;;;;15.96;54.94;99678.88;5279797;26;20352;-76
2024/04/25 07:44:42;;;;;;;1.27;0.57;;;;;;;16.58;55.24;99683.91;5298048;27;20037;-76
2024/04/25 07:47:47;;;;;;;1.83;0.60;;;;;;;18.29;48.27;99681.78;5309443;27;20030;-74
2024/04/25 07:50:53;;;;;;;2.38;0.80;;;;;;;19.88;45.23;99682.84;5326069;26;20057;-76
2024/04/25 07:53:57;;;;;;;1.38;0.50;;;;;;;19.78;44.78;99682.44;5290847;26;20033;-76
2024/04/25 07:57:02;;;;;;;2.55;0.90;;;;;;;20.94;42.16;99683.41;5311980;27;20034;-77
2024/04/25 08:00:09;;;;;;;1.70;0.63;;;;;;;20.12;42.32;99682.19;5309407;27;20030;-75
2024/04/25 08:03:18;;;;;;;1.58;0.52;;;;;;;20.05;41.52;99683.25;5276577;27;20038;-75
2024/04/25 08:06:23;;;;;;;1.40;0.60;;;;;;;22.75;37.63;99685.91;5277690;27;20038;-74
2024/04/25 08:09:29;;;;;;;1.08;0.47;;;;;;;21.66;37.06;99691.16;5277475;27;20026;-77
2024/04/25 08:12:37;;;;;;;1.40;0.70;;;;;;;21.86;35.62;99689.13;5257470;27;20026;-80
2024/04/25 08:15:43;;;;;;;1.48;0.60;;;;;;;23.98;32.32;99685.16;5258042;27;20026;-76
2024/04/25 08:18:48;;;;;;;2.72;0.50;;;;;;;22.96;33.90;99691.72;5274175;27;20137;-77
2024/04/25 08:21:53;;;;;;;1.30;0.50;;;;;;;22.19;35.69;99684.22;5277122;27;20022;-75
2024/04/25 08:24:58;;;;;;;1.67;0.50;;;;;;;20.91;37.47;99683.84;5277434;27;20027;-77
2024/04/25 08:28:03;;;;;;;1.20;0.50;;;;;;;19.34;41.31;99693.91;5277749;27;20027;-76
2024/04/25 08:31:08;;;;;;;5.35;0.60;;;;;;;18.33;44.45;99685.75;5277239;27;20026;-80
2024/04/25 08:34:13;;;;;;;1.98;0.80;;;;;;;17.86;45.91;99691.94;5277497;27;20041;-78
2024/04/25 08:37:18;;;;;;;1.35;0.60;;;;;;;18.27;46.17;99700.13;5277310;27;20426;-78
2024/04/25 08:40:22;;;;;;;1.60;0.60;;;;;;;17.81;47.68;99701.69;5277081;27;20027;-77
2024/04/25 08:43:28;;;;;;;1.50;0.60;;;;;;;17.32;47.15;99698.94;5276878;27;20026;-79
2024/04/25 08:46:34;;;;;;;1.45;0.65;;;;;;;16.13;49.58;99698.47;5277083;27;20024;-78
2024/04/25 08:49:40;;;;;;;2.28;0.60;;;;;;;16.60;48.82;99696.25;5277061;27;20440;-78
2024/04/25 08:52:47;;;;;;;1.40;0.70;;;;;;;18.05;46.67;99695.81;5311219;27;20332;-79
2024/04/25 08:55:53;;;;;;;1.50;0.57;;;;;;;18.33;46.58;99696.63;5311191;27;20026;-74
2024/04/25 08:58:57;;;;;;;1.50;0.80;;;;;;;18.44;46.03;99704.19;5311112;27;20021;-77
2024/04/25 09:02:05;;;;;;;1.20;0.60;;;;;;;17.64;45.95;99698.44;5311015;27;20029;-74
2024/04/25 09:05:11;;;;;;;2.58;0.93;;;;;;;16.63;49.68;99701.28;5311021;27;20021;-75
2024/04/25 09:08:17;;;;;;;1.83;0.70;;;;;;;17.91;47.75;99710.34;5311357;27;20025;-75
2024/04/25 09:11:22;;;;;;;1.45;0.80;;;;;;;18.15;45.67;99710.72;5311096;27;20021;-76
2024/04/25 09:14:27;;;;;;;2.47;0.90;;;;;;;18.07;48.38;99696.47;5310588;27;20021;-75
2024/04/25 09:17:32;;;;;;;2.15;1.00;;;;;;;17.43;47.54;99707.38;5313979;27;20025;-75
2024/04/25 09:20:37;;;;;;;2.20;1.20;;;;;;;15.75;48.77;99708.50;5312807;27;20025;-78
2024/04/25 09:23:43;;;;;;;2.33;1.20;;;;;;;16.90;49.55;99705.16;5313834;27;20021;-78
2024/04/25 09:26:48;;;;;;;2.28;1.38;;;;;;;17.01;48.72;99701.94;5313825;27;20045;-76
2024/04/25 09:29:53;;;;;;;2.63;1.33;;;;;;;16.90;48.15;99702.44;5313649;27;20465;-74
2024/04/25 09:32:58;;;;;;;2.30;1.35;;;;;;;17.50;45.88;99700.16;5313812;27;20026;-77
2024/04/25 09:36:07;;;;;;;2.08;1.10;;;;;;;17.03;47.99;99713.47;5313617;27;20022;-78
2024/04/25 09:39:12;;;;;;;2.20;0.90;;;;;;;16.48;50.93;99702.31;5313617;27;20025;-77
2024/04/25 09:42:18;;;;;;;4.65;1.33;;;;;;;16.50;48.59;99702.94;5313540;27;20026;-74
2024/04/25 09:45:27;;;;;;;2.53;1.40;;;;;;;16.51;48.28;99707.34;5313571;27;20045;-77
2024/04/25 09:48:35;;;;;;;3.72;1.48;;;;;;;16.49;46.71;99706.69;5313666;27;20360;-75
2024/04/25 09:51:46;;;;;;;2.10;1.20;;;;;;;16.68;46.30;99704.28;5313495;27;20021;-79
2024/04/25 09:54:56;;;;;;;1.60;0.85;;;;;;;16.88;46.92;99707.22;5313580;27;20026;-74
2024/04/25 09:58:04;;;;;;;2.30;1.23;;;;;;;16.53;48.29;99705.31;5313311;27;20021;-74
2024/04/25 10:01:09;;;;;;;2.63;1.25;;;;;;;16.87;49.43;99700.97;5314369;27;20025;-75
2024/04/25 10:04:15;;;;;;;2.17;1.08;;;;;;;17.11;46.10;99705.19;5313332;27;20473;-77
2024/04/25 10:07:21;;;;;;;2.42;1.30;;;;;;;17.12;44.52;99696.03;5313249;27;20030;-75
2024/04/25 10:10:26;;;;;;;1.75;1.02;;;;;;;17.03;47.59;99697.19;5313783;27;20022;-79
2024/04/25 10:13:31;;;;;;;3.60;1.17;;;;;;;16.57;48.14;99701.19;5313110;27;20025;-75
2024/04/25 10:16:37;;;;;;;2.22;1.30;;;;;;;16.72;49.31;99699.31;5312822;27;20026;-78
2024/04/25 10:19:43;;;;;;;1.60;0.93;;;;;;;16.22;47.40;99700.91;5313403;27;20025;-77
2024/04/25 10:22:57;;;;;;;2.50;0.98;;;;;;;16.68;48.19;99692.59;5313161;27;20025;-77
2024/04/25 10:26:03;;;;;;;2.10;1.23;;;;;;;16.09;48.63;99694.47;5312058;27;20026;-74
2024/04/25 10:29:08;;;;;;;2.33;1.08;;;;;;;15.87;49.62;99688.09;5312896;27;20371;-80
2024/04/25 10:32:13;;;;;;;2.05;1.27;;;;;;;16.20;48.09;99692.13;5313127;27;20360;-76
2024/04/25 10:35:18;;;;;;;6.50;1.58;;;;;;;16.14;48.43;99695.59;5312888;27;20025;-79
2024/04/25 10:38:23;;;;;;;3.28;1.10;;;;;;;16.14;49.56;99701.03;5312936;27;20021;-79
2024/04/25 10:41:37;;;;;;;3.05;1.35;;;;;;;16.45;50.30;99698.09;5313144;27;20388;-77
2024/04/25 10:44:42;;;;;;;1.80;1.05;;;;;;;16.69;49.85;99688.88;5312793;27;20469;-78
2024/04/25 10:47:48;;;;;;;3.03;1.20;;;;;;;16.55;47.78;99685.13;5312893;27;20030;-74
2024/04/25 10:50:53;;;;;;;2.20;1.40;;;;;;;16.09;49.64;99681.78;5257750;27;20026;-73
2024/04/25 10:53:59;;;;;;;2.88;1.40;;;;;;;15.96;49.57;99684.28;5278602;27;20466;-80
2024/04/25 10:57:05;;;;;;;2.03;1.10;;;;;;;16.30;49.10;99678.31;5278433;27;20030;-75
2024/04/25 11:00:10;;;;;;;2.13;1.10;;;;;;;16.27;47.80;99678.66;5278592;27;20022;-78
2024/04/25 11:03:15;;;;;;;3.20;1.48;;;;;;;15.99;49.34;99675.78;5278892;27;20030;-76
2024/04/25 11:06:22;;;;;;;2.45;1.15;;;;;;;16.16;48.24;99682.72;5279167;27;20470;-80
2024/04/25 11:09:27;;;;;;;2.50;1.50;;;;;;;16.19;47.48;99681.50;5278581;27;20022;-76
2024/04/25 11:12:32;;;;;;;2.33;1.50;;;;;;;16.06;49.32;99675.88;5278733;27;20446;-75
2024/04/25 11:15:42;;;;;;;2.30;1.20;;;;;;;16.21;51.13;99663.19;5278081;27;20026;-77
2024/04/25 11:18:49;;;;;;;2.50;1.30;;;;;;;16.31;49.51;99666.47;5278210;27;20400;-79
2024/04/25 11:21:53;;;;;;;2.20;1.30;;;;;;;16.20;49.53;99656.06;5276984;27;20026;-77
2024/04/25 11:25:12;;;;;;;3.35;1.63;;;;;;;16.18;50.06;99653.56;5277954;27;20030;-76
2024/04/25 11:28:17;;;;;;;2.55;1.25;;;;;;;16.13;49.95;99656.00;5278343;27;20026;-78
2024/04/25 11:31:22;;;;;;;4.28;1.45;;;;;;;16.02;48.87;99650.22;5278072;27;20022;-77
2024/04/25 11:34:27;;;;;;;4.00;1.60;;;;;;;16.01;50.06;99646.66;5257312;27;20022;-75
2024/04/25 11:37:40;;;;;;;2.35;1.50;;;;;;;16.01;49.27;99646.66;5277418;27;20022;-75
2024/04/25 11:40:46;;;;;;;5.65;1.42;;;;;;;16.34;50.81;99649.00;5257456;27;20458;-79
2024/04/25 11:43:51;;;;;;;2.42;1.38;;;;;;;15.98;48.69;99647.03;5277747;27;20025;-76
2024/04/25 11:47:02;;;;;;;2.40;1.50;;;;;;;15.94;49.84;99653.84;5278110;27;20025;-75
2024/04/25 11:50:08;;;;;;;2.70;1.50;;;;;;;16.09;50.75;99654.69;5284055;27;20360;-79
2024/04/25 11:53:13;;;;;;;2.50;1.50;;;;;;;16.11;50.16;99646.38;5311662;27;20022;-76
2024/04/25 11:56:18;;;;;;;4.72;1.67;;;;;;;15.95;50.56;99650.09;5310504;27;20473;-79
2024/04/25 11:59:23;;;;;;;2.58;1.38;;;;;;;15.82;50.95;99657.19;5330418;26;20025;-76
2024/04/25 12:02:28;;;;;;;2.72;1.45;;;;;;;16.24;50.94;99641.16;5311522;27;20378;-76
2024/04/25 12:05:33;;;;;;;4.75;1.60;;;;;;;16.22;49.42;99648.59;5311723;27;20021;-78
2024/04/25 12:08:38;;;;;;;2.58;1.48;;;;;;;16.72;49.41;99650.53;5311566;27;20025;-79
2024/04/25 12:11:43;;;;;;;2.40;1.45;;;;;;;16.70;48.57;99649.88;5311596;27;20027;-79
2024/04/25 12:14:48;;;;;;;2.30;1.50;;;;;;;16.47;49.14;99649.97;5311401;27;20025;-78
2024/04/25 12:17:52;;;;;;;2.55;1.40;;;;;;;16.24;48.64;99641.97;5311454;27;20021;-80
2024/04/25 12:20:59;;;;;;;2.45;1.35;;;;;;;16.50;48.95;99646.91;5311531;27;20038;-77
2024/04/25 12:24:04;;;;;;;2.67;1.45;;;;;;;16.19;48.73;99635.47;5311216;27;20029;-76
2024/04/25 12:27:09;;;;;;;2.67;1.35;;;;;;;16.20;49.17;99639.84;5311250;27;20025;-79
2024/04/25 12:30:14;;;;;;;2.65;1.45;;;;;;;16.34;48.17;99635.44;5311377;27;20029;-76
2024/04/25 12:33:18;;;;;;;4.45;1.50;;;;;;;15.79;49.50;99638.63;5311280;27;20030;-75
2024/04/25 12:36:23;;;;;;;4.35;2.55;;;;;;;15.99;49.96;99628.94;5311201;27;20026;-80
2024/04/25 12:39:31;;;;;;;2.33;1.58;;;;;;;16.13;48.55;99628.91;5311393;27;20026;-76
2024/04/25 12:42:35;;;;;;;2.95;1.75;;;;;;;16.21;48.73;99631.53;5311211;27;20337;-77
2024/04/25 12:45:40;;;;;;;2.35;1.35;;;;;;;16.23;50.62;99632.19;5311132;27;20025;-77
2024/04/25 12:48:45;;;;;;;3.00;1.90;;;;;;;16.07;49.46;99626.94;5310977;27;20368;-79
2024/04/25 12:51:51;;;;;;;4.28;1.88;;;;;;;15.97;51.47;99633.69;5314145;27;20026;-77
2024/04/25 12:54:56;;;;;;;5.03;1.38;;;;;;;16.23;51.29;99632.19;5314015;27;20026;-77
2024/04/25 12:58:01;;;;;;;2.38;1.27;;;;;;;16.16;50.40;99616.88;5312907;27;20025;-77
2024/04/25 13:01:05;;;;;;;3.20;1.90;;;;;;;16.23;50.77;99626.78;5313957;27;20022;-76
2024/04/25 13:04:10;;;;;;;3.42;1.52;;;;;;;15.87;50.20;99620.44;5313901;27;20383;-75
2024/04/25 13:07:15;;;;;;;2.67;1.30;;;;;;;16.05;50.70;99614.63;5313945;27;20105;-75
2024/04/25 13:10:20;;;;;;;2.63;1.15;;;;;;;16.19;51.19;99628.19;5332389;26;20023;-77
2024/04/25 13:13:26;;;;;;;2.35;1.40;;;;;;;16.55;49.17;99622.81;5313785;27;20026;-77
2024/04/25 13:16:31;;;;;;;2.47;1.30;;;;;;;16.13;48.26;99625.38;5313546;27;20025;-79
2024/04/25 13:19:37;;;;;;;1.98;1.30;;;;;;;16.33;49.18;99609.38;5313734;27;20026;-75
2024/04/25 13:22:41;;;;;;;2.38;1.40;;;;;;;16.26;50.04;99612.00;5313695;27;20025;-77
2024/04/25 13:25:46;;;;;;;1.55;0.90;;;;;;;16.38;48.02;99609.66;5313715;27;20025;-79
2024/04/25 13:28:51;;;;;;;2.38;1.38;;;;;;;15.53;48.00;99610.13;5313894;27;20030;-79
2024/04/25 13:31:57;;;;;;;2.45;1.20;;;;;;;15.93;48.50;99603.44;5313495;27;20022;-79
2024/04/25 13:35:01;;;;;;;1.90;1.00;;;;;;;16.13;47.56;99607.25;5313946;27;20017;-79
2024/04/25 13:38:08;;;;;;;2.38;1.50;;;;;;;16.34;48.65;99600.22;5313373;27;20021;-80
2024/04/25 13:41:13;;;;;;;2.13;1.10;;;;;;;16.73;47.16;99603.44;5313587;27;20368;-79
2024/04/25 13:44:18;;;;;;;3.30;1.05;;;;;;;16.70;45.88;99606.50;5313469;27;20025;-75
2024/04/25 13:47:25;;;;;;;2.00;1.13;;;;;;;16.40;48.71;99602.16;5313387;27;20022;-80
2024/04/25 13:50:29;;;;;;;7.25;2.42;;;;;;;16.60;47.72;99601.41;5313053;27;20026;-77
2024/04/25 13:53:34;;;;;;;3.47;1.35;;;;;;;16.66;46.80;99597.09;5313463;27;20022;-79
2024/04/25 13:56:40;;;;;;;2.30;1.13;;;;;;;16.65;46.44;99606.25;5313246;27;20029;-76
2024/04/25 13:59:45;;;;;;;2.22;1.23;;;;;;;16.09;47.33;99605.97;5313206;27;20022;-76
2024/04/25 14:02:49;;;;;;;2.50;1.08;;;;;;;16.42;47.02;99594.72;5311269;27;20032;-75
2024/04/25 14:05:56;;;;;;;3.55;1.20;;;;;;;16.64;46.98;99599.97;5313491;27;20465;-75
2024/04/25 14:09:01;;;;;;;2.05;1.17;;;;;;;16.87;46.42;99595.25;5313017;27;20423;-77
2024/04/25 14:12:07;;;;;;;1.98;1.10;;;;;;;16.77;47.45;99594.72;5313012;27;20022;-76
2024/04/25 14:15:15;;;;;;;2.58;1.33;;;;;;;16.70;47.35;99590.25;5325430;26;20033;-78
2024/04/25 14:18:25;;;;;;;2.75;1.33;;;;;;;16.84;47.72;99595.63;5312976;26;20018;-75
2024/04/25 14:21:30;;;;;;;4.78;1.35;;;;;;;16.60;47.05;99592.44;5347340;26;20025;-78
2024/04/25 14:24:37;;;;;;;2.63;1.13;;;;;;;16.50;47.41;99589.16;5347157;26;20025;-77
2024/04/25 14:31:18;;;;;;;2.65;1.38;;;;;;;16.55;48.59;99584.03;5347263;26;20040;-77
2024/04/25 14:34:25;;;;;;;2.55;1.27;;;;;;;16.35;48.28;99582.94;5346188;26;20472;-76
2024/04/25 14:37:30;;;;;;;2.30;1.23;;;;;;;16.13;48.83;99579.34;5347242;26;20111;-77
2024/04/25 14:40:34;;;;;;;2.88;1.33;;;;;;;15.94;49.27;99580.78;5347407;26;20028;-77